Time;durP1;ratioP1;P1;durP2;ratioP2;P2;SDS_P1;SDS_P2;PMS_P1;PMS_P2;Temp;Humidity;BMP_temperature;BMP_pressure;BME280_temperature;BME280_humidity;BME280_pressure;Samples;Min_cycle;Max_cycle;Signal;HPM_P1;HPM_P2
2023/07/31 00:00:48;;;;;;;5.28;1.70;;;;;;;;;;5117293;28;20203;-69
2023/07/31 00:03:15;;;;;;;3.28;1.20;;;;;;;;;;5118176;28;20285;-69
2023/07/31 00:05:43;;;;;;;3.92;1.65;;;;;;;;;;5117738;28;20278;-68
2023/07/31 00:08:10;;;;;;;3.03;1.50;;;;;;;;;;5117761;28;20629;-69
2023/07/31 00:10:37;;;;;;;1.90;1.40;;;;;;;;;;5119525;28;20253;-69
2023/07/31 00:13:05;;;;;;;2.42;1.50;;;;;;;;;;5121672;28;20203;-70
2023/07/31 00:15:32;;;;;;;1.80;1.40;;;;;;;;;;5121716;28;20565;-69
2023/07/31 00:18:02;;;;;;;1.90;1.38;;;;;;;;;;5122209;28;20206;-69
2023/07/31 00:20:29;;;;;;;3.53;1.40;;;;;;;;;;5121981;28;20267;-69
2023/07/31 00:22:57;;;;;;;1.90;1.38;;;;;;;;;;5122207;28;20199;-69
2023/07/31 00:25:24;;;;;;;2.80;1.23;;;;;;;;;;5122107;28;20203;-69
2023/07/31 00:27:51;;;;;;;2.40;1.52;;;;;;;;;;5118911;28;20196;-69
2023/07/31 00:30:19;;;;;;;3.80;1.67;;;;;;;;;;5121815;28;20587;-69
2023/07/31 00:32:47;;;;;;;2.95;1.63;;;;;;;;;;5121517;28;20231;-71
2023/07/31 00:35:15;;;;;;;1.77;1.38;;;;;;;;;;5121442;28;20274;-69
2023/07/31 00:37:43;;;;;;;2.45;1.63;;;;;;;;;;5121592;28;20534;-69
2023/07/31 00:40:10;;;;;;;2.85;1.55;;;;;;;;;;5121846;28;20207;-69
2023/07/31 00:42:38;;;;;;;2.42;1.60;;;;;;;;;;5121473;28;20347;-69
2023/07/31 00:45:06;;;;;;;2.60;1.48;;;;;;;;;;5121088;28;20214;-70
2023/07/31 00:47:33;;;;;;;2.72;1.60;;;;;;;;;;5121079;28;20352;-69
2023/07/31 00:50:01;;;;;;;2.00;1.60;;;;;;;;;;5121264;28;20213;-69
2023/07/31 00:52:30;;;;;;;2.97;1.42;;;;;;;;;;5121014;28;20553;-70
2023/07/31 00:54:57;;;;;;;3.95;1.55;;;;;;;;;;5121222;28;20669;-69
2023/07/31 00:57:25;;;;;;;2.97;1.50;;;;;;;;;;5120643;28;20246;-69
2023/07/31 00:59:52;;;;;;;1.70;1.50;;;;;;;;;;5120600;28;20249;-69
2023/07/31 01:02:20;;;;;;;4.05;1.60;;;;;;;;;;5120991;28;20209;-69
2023/07/31 01:04:48;;;;;;;2.60;1.65;;;;;;;;;;5121013;28;20293;-69
2023/07/31 01:07:20;;;;;;;3.78;1.52;;;;;;;;;;5121187;28;20524;-69
2023/07/31 01:09:55;;;;;;;1.80;1.50;;;;;;;;;;5121068;28;20242;-69
2023/07/31 01:12:24;;;;;;;2.78;1.80;;;;;;;;;;5120885;28;20222;-69
2023/07/31 01:15:03;;;;;;;2.60;1.83;;;;;;;;;;5120662;28;20660;-70
2023/07/31 01:17:31;;;;;;;2.35;1.70;;;;;;;;;;5120346;28;20645;-69
2023/07/31 01:20:01;;;;;;;1.95;1.48;;;;;;;;;;5120798;28;20246;-69
2023/07/31 01:22:38;;;;;;;2.63;1.73;;;;;;;;;;5119494;28;20291;-69
2023/07/31 01:25:14;;;;;;;2.80;1.67;;;;;;;;;;5120376;28;20194;-69
2023/07/31 01:27:47;;;;;;;3.53;1.77;;;;;;;;;;5120507;28;20241;-69
2023/07/31 01:30:17;;;;;;;2.40;1.50;;;;;;;;;;5120793;28;20238;-69
2023/07/31 01:32:48;;;;;;;1.90;1.48;;;;;;;;;;5120166;28;20305;-69
2023/07/31 01:35:15;;;;;;;2.47;1.90;;;;;;;;;;5120193;28;20333;-69
2023/07/31 01:37:42;;;;;;;3.08;1.65;;;;;;;;;;5120139;28;20229;-69
2023/07/31 01:40:11;;;;;;;2.65;1.70;;;;;;;;;;5120239;28;20209;-68
2023/07/31 01:42:38;;;;;;;2.05;1.45;;;;;;;;;;5120287;28;20262;-69
2023/07/31 01:45:08;;;;;;;2.90;1.42;;;;;;;;;;5120251;28;20265;-70
2023/07/31 01:47:35;;;;;;;3.25;1.80;;;;;;;;;;5119789;28;20498;-70
2023/07/31 01:50:03;;;;;;;2.83;1.70;;;;;;;;;;5120423;28;20256;-71
2023/07/31 01:52:30;;;;;;;2.10;1.60;;;;;;;;;;5120461;28;20230;-70
2023/07/31 01:54:57;;;;;;;2.30;1.60;;;;;;;;;;5120389;28;20609;-70
2023/07/31 01:57:25;;;;;;;2.75;1.77;;;;;;;;;;5119604;28;20203;-68
2023/07/31 01:59:53;;;;;;;2.22;1.80;;;;;;;;;;5119803;28;20203;-69
2023/07/31 02:02:22;;;;;;;1.60;1.50;;;;;;;;;;5120073;28;20199;-69
2023/07/31 02:04:50;;;;;;;2.72;1.60;;;;;;;;;;5120198;28;20203;-69
2023/07/31 02:07:18;;;;;;;2.65;1.80;;;;;;;;;;5119889;28;20217;-68
2023/07/31 02:09:46;;;;;;;3.42;1.80;;;;;;;;;;5120013;28;20299;-71
2023/07/31 02:12:14;;;;;;;2.83;1.58;;;;;;;;;;5119678;28;20554;-69
2023/07/31 02:14:41;;;;;;;3.17;1.75;;;;;;;;;;5119561;28;20575;-69
2023/07/31 02:17:09;;;;;;;2.83;1.70;;;;;;;;;;5119298;28;20202;-70
2023/07/31 02:19:38;;;;;;;3.42;1.90;;;;;;;;;;5119766;28;20596;-70
2023/07/31 02:22:06;;;;;;;3.00;1.73;;;;;;;;;;5118345;28;20578;-70
2023/07/31 02:24:33;;;;;;;3.03;1.80;;;;;;;;;;5119060;28;20525;-69
2023/07/31 02:27:00;;;;;;;2.65;1.75;;;;;;;;;;5118941;28;20496;-70
2023/07/31 02:29:28;;;;;;;2.50;1.83;;;;;;;;;;5118811;28;20298;-70
2023/07/31 02:31:55;;;;;;;4.82;1.90;;;;;;;;;;5119109;28;20231;-70
2023/07/31 02:34:23;;;;;;;3.10;1.80;;;;;;;;;;5118660;28;20591;-70
2023/07/31 02:36:52;;;;;;;2.03;1.60;;;;;;;;;;5098741;28;20290;-70
2023/07/31 02:39:19;;;;;;;3.78;1.65;;;;;;;;;;5099092;28;20298;-70
2023/07/31 02:41:47;;;;;;;2.08;1.55;;;;;;;;;;5097940;28;20580;-70
2023/07/31 02:44:14;;;;;;;3.88;1.67;;;;;;;;;;5098746;28;20203;-70
2023/07/31 02:46:42;;;;;;;2.30;1.70;;;;;;;;;;5098902;28;20204;-70
2023/07/31 02:49:09;;;;;;;2.08;1.52;;;;;;;;;;5097988;28;20203;-71
2023/07/31 02:51:36;;;;;;;5.22;1.80;;;;;;;;;;5098390;28;20286;-72
2023/07/31 02:54:05;;;;;;;2.05;1.60;;;;;;;;;;5097929;28;20204;-70
2023/07/31 02:56:33;;;;;;;4.47;1.90;;;;;;;;;;5098113;28;20203;-70
2023/07/31 02:59:00;;;;;;;3.45;1.90;;;;;;;;;;5098244;28;20214;-70
2023/07/31 03:01:27;;;;;;;4.13;1.92;;;;;;;;;;5097889;28;20290;-70
2023/07/31 03:03:54;;;;;;;3.13;1.70;;;;;;;;;;5097993;28;20196;-70
2023/07/31 03:06:22;;;;;;;2.85;2.00;;;;;;;;;;5098372;28;20303;-70
2023/07/31 03:08:49;;;;;;;3.47;1.90;;;;;;;;;;5098186;28;20573;-70
2023/07/31 03:11:18;;;;;;;3.55;2.00;;;;;;;;;;5098301;28;20298;-70
2023/07/31 03:13:45;;;;;;;2.72;2.10;;;;;;;;;;5098317;28;20230;-70
2023/07/31 03:16:13;;;;;;;3.72;1.90;;;;;;;;;;5097874;28;20221;-70
2023/07/31 03:18:40;;;;;;;2.65;1.90;;;;;;;;;;5097577;28;20598;-70
2023/07/31 03:21:08;;;;;;;1.98;1.63;;;;;;;;;;5098166;28;20204;-70
2023/07/31 03:23:35;;;;;;;3.67;2.00;;;;;;;;;;5097606;28;20231;-70
2023/07/31 03:26:04;;;;;;;3.13;2.00;;;;;;;;;;5097369;28;20244;-70
2023/07/31 03:28:33;;;;;;;2.45;1.83;;;;;;;;;;5094017;28;20204;-70
2023/07/31 03:31:01;;;;;;;2.78;1.83;;;;;;;;;;5097627;28;20214;-70
2023/07/31 03:33:28;;;;;;;2.10;1.75;;;;;;;;;;5097753;28;20227;-70
2023/07/31 03:35:55;;;;;;;3.83;2.00;;;;;;;;;;5110336;28;20569;-70
2023/07/31 03:38:23;;;;;;;2.83;1.88;;;;;;;;;;5118231;28;20475;-70
2023/07/31 03:40:50;;;;;;;2.60;1.80;;;;;;;;;;5138554;27;20382;-70
2023/07/31 03:43:18;;;;;;;3.33;1.80;;;;;;;;;;5138397;27;20198;-70
2023/07/31 03:45:47;;;;;;;3.60;1.77;;;;;;;;;;5138019;27;20202;-70
2023/07/31 03:48:15;;;;;;;2.40;1.73;;;;;;;;;;5138588;27;20230;-70
2023/07/31 03:50:43;;;;;;;3.38;1.83;;;;;;;;;;5138369;28;20252;-70
2023/07/31 03:53:10;;;;;;;3.92;1.98;;;;;;;;;;5137797;28;20266;-70
2023/07/31 03:55:38;;;;;;;3.17;1.80;;;;;;;;;;5138503;28;20209;-70
2023/07/31 03:58:05;;;;;;;2.78;1.90;;;;;;;;;;5138215;28;20238;-71
2023/07/31 04:00:33;;;;;;;3.50;1.85;;;;;;;;;;5138268;28;20212;-71
2023/07/31 04:03:01;;;;;;;3.30;1.90;;;;;;;;;;5137747;28;20502;-70
2023/07/31 04:05:29;;;;;;;3.00;1.80;;;;;;;;;;5137672;28;20210;-70
2023/07/31 04:07:56;;;;;;;4.22;1.80;;;;;;;;;;5138512;28;20524;-70
2023/07/31 04:10:24;;;;;;;2.97;2.15;;;;;;;;;;5138229;28;20284;-70
2023/07/31 04:12:51;;;;;;;2.92;1.80;;;;;;;;;;5137369;28;20236;-70
2023/07/31 04:15:19;;;;;;;3.22;1.95;;;;;;;;;;5138256;28;20578;-70
2023/07/31 04:17:46;;;;;;;2.25;1.98;;;;;;;;;;5138526;28;20482;-70
2023/07/31 04:20:15;;;;;;;4.68;1.98;;;;;;;;;;5138445;28;20296;-70
2023/07/31 04:22:43;;;;;;;2.20;1.80;;;;;;;;;;5137976;28;20229;-70
2023/07/31 04:25:10;;;;;;;2.70;1.67;;;;;;;;;;5138239;28;20294;-71
2023/07/31 04:27:38;;;;;;;2.85;1.88;;;;;;;;;;5137144;28;20241;-71
2023/07/31 04:30:06;;;;;;;4.03;2.00;;;;;;;;;;5137684;28;20266;-71
2023/07/31 04:32:35;;;;;;;2.88;1.90;;;;;;;;;;5137522;28;20558;-70
2023/07/31 04:35:02;;;;;;;2.42;1.90;;;;;;;;;;5137024;28;20267;-70
2023/07/31 04:37:31;;;;;;;2.92;1.80;;;;;;;;;;5137262;28;20224;-70
2023/07/31 04:39:59;;;;;;;2.80;2.20;;;;;;;;;;5137737;28;20201;-70
2023/07/31 04:42:26;;;;;;;2.90;2.03;;;;;;;;;;5137449;28;20666;-70
2023/07/31 04:44:54;;;;;;;3.38;1.90;;;;;;;;;;5137280;28;20238;-70
2023/07/31 04:47:21;;;;;;;3.20;1.90;;;;;;;;;;5137012;28;20213;-70
2023/07/31 04:49:49;;;;;;;2.72;1.88;;;;;;;;;;5137543;28;20462;-70
2023/07/31 04:52:16;;;;;;;4.50;2.00;;;;;;;;;;5137359;28;20233;-70
2023/07/31 04:54:45;;;;;;;3.60;2.00;;;;;;;;;;5137269;28;20263;-70
2023/07/31 04:57:12;;;;;;;2.60;1.95;;;;;;;;;;5137850;27;20304;-71
2023/07/31 04:59:40;;;;;;;3.92;2.30;;;;;;;;;;5140912;27;20560;-70
2023/07/31 05:02:08;;;;;;;3.42;1.90;;;;;;;;;;5140526;27;20590;-70
2023/07/31 05:04:36;;;;;;;2.85;1.90;;;;;;;;;;5140626;27;20285;-70
2023/07/31 05:07:04;;;;;;;4.13;2.10;;;;;;;;;;5141256;27;20297;-71
2023/07/31 05:09:31;;;;;;;5.30;3.83;;;;;;;;;;5140405;27;20744;-70
2023/07/31 05:12:00;;;;;;;3.67;2.63;;;;;;;;;;5140778;27;20495;-70
2023/07/31 05:14:27;;;;;;;3.00;2.40;;;;;;;;;;5140898;27;20222;-70
2023/07/31 05:16:55;;;;;;;4.35;2.83;;;;;;;;;;5140449;27;20293;-70
2023/07/31 05:19:23;;;;;;;3.38;2.30;;;;;;;;;;5139913;27;20255;-70
2023/07/31 05:21:50;;;;;;;3.80;2.28;;;;;;;;;;5140324;27;20796;-70
2023/07/31 05:24:17;;;;;;;3.35;2.30;;;;;;;;;;5140039;27;20238;-70
2023/07/31 05:26:45;;;;;;;4.38;2.40;;;;;;;;;;5140198;27;20202;-70
2023/07/31 05:29:14;;;;;;;3.97;2.10;;;;;;;;;;5139243;27;20256;-70
2023/07/31 05:31:41;;;;;;;3.92;1.95;;;;;;;;;;5140807;27;20627;-70
2023/07/31 05:34:09;;;;;;;3.80;2.15;;;;;;;;;;5140250;27;20321;-70
2023/07/31 05:36:36;;;;;;;3.10;2.00;;;;;;;;;;5139638;27;20262;-70
2023/07/31 05:39:07;;;;;;;2.70;1.98;;;;;;;;;;5139712;27;20212;-70
2023/07/31 05:41:34;;;;;;;2.53;2.03;;;;;;;;;;5139852;27;20206;-70
2023/07/31 05:44:02;;;;;;;3.63;2.10;;;;;;;;;;5139168;27;20206;-70
2023/07/31 05:46:31;;;;;;;3.03;2.00;;;;;;;;;;5139840;27;20283;-70
2023/07/31 05:49:00;;;;;;;2.75;2.00;;;;;;;;;;5139618;27;20474;-70
2023/07/31 05:51:27;;;;;;;3.88;2.30;;;;;;;;;;5139226;27;20259;-70
2023/07/31 05:53:55;;;;;;;3.55;2.17;;;;;;;;;;5139636;27;20504;-70
2023/07/31 05:56:23;;;;;;;3.90;2.03;;;;;;;;;;5138988;27;20234;-70
2023/07/31 05:58:50;;;;;;;2.65;1.92;;;;;;;;;;5139013;27;20224;-70
2023/07/31 06:01:18;;;;;;;2.80;2.15;;;;;;;;;;5139305;27;20210;-70
2023/07/31 06:03:46;;;;;;;3.15;2.00;;;;;;;;;;5138710;27;20264;-70
2023/07/31 06:06:14;;;;;;;2.50;2.05;;;;;;;;;;5139114;27;20234;-70
2023/07/31 06:08:41;;;;;;;3.60;1.80;;;;;;;;;;5137786;27;20210;-70
2023/07/31 06:11:09;;;;;;;3.53;2.38;;;;;;;;;;5139600;27;20229;-70
2023/07/31 06:13:37;;;;;;;3.75;2.30;;;;;;;;;;5137277;27;20229;-71
2023/07/31 06:16:06;;;;;;;3.25;2.08;;;;;;;;;;5139384;27;20199;-70
2023/07/31 06:18:33;;;;;;;3.10;2.13;;;;;;;;;;5138577;27;20211;-71
2023/07/31 06:21:02;;;;;;;2.53;2.10;;;;;;;;;;5138574;27;20197;-70
2023/07/31 06:23:30;;;;;;;2.10;1.73;;;;;;;;;;5138386;27;20190;-70
2023/07/31 06:25:57;;;;;;;3.75;2.05;;;;;;;;;;5138253;27;20203;-70
2023/07/31 06:28:30;;;;;;;3.97;2.20;;;;;;;;;;5138339;27;20296;-69
2023/07/31 06:30:57;;;;;;;2.58;1.80;;;;;;;;;;5138281;27;20276;-70
2023/07/31 06:33:24;;;;;;;3.35;2.40;;;;;;;;;;5137971;27;20509;-71
2023/07/31 06:35:52;;;;;;;3.90;2.10;;;;;;;;;;5137651;27;20684;-70
2023/07/31 06:38:24;;;;;;;2.97;2.10;;;;;;;;;;5137774;27;20560;-70
2023/07/31 06:40:51;;;;;;;4.15;2.38;;;;;;;;;;5138330;27;20200;-70
2023/07/31 06:43:18;;;;;;;3.65;2.38;;;;;;;;;;5137654;27;20205;-70
2023/07/31 06:45:48;;;;;;;3.90;1.98;;;;;;;;;;5138648;27;20203;-71
2023/07/31 06:48:15;;;;;;;3.20;1.92;;;;;;;;;;5137961;27;20246;-70
2023/07/31 06:50:43;;;;;;;2.22;1.95;;;;;;;;;;5138056;27;20685;-70
2023/07/31 06:53:10;;;;;;;3.78;2.40;;;;;;;;;;5137702;27;20261;-70
2023/07/31 06:55:39;;;;;;;4.03;2.17;;;;;;;;;;5137923;27;20202;-70
2023/07/31 06:58:07;;;;;;;2.90;2.15;;;;;;;;;;5137177;27;20263;-70
2023/07/31 07:00:34;;;;;;;3.35;2.17;;;;;;;;;;5137924;27;20207;-71
2023/07/31 07:03:01;;;;;;;2.92;2.10;;;;;;;;;;5137496;27;20202;-70
2023/07/31 07:05:29;;;;;;;3.60;2.25;;;;;;;;;;5137471;27;20254;-70
2023/07/31 07:07:56;;;;;;;3.22;2.33;;;;;;;;;;5136866;27;20271;-69
2023/07/31 07:10:24;;;;;;;3.17;1.92;;;;;;;;;;5137313;27;20210;-69
2023/07/31 07:12:53;;;;;;;3.60;2.23;;;;;;;;;;5137880;27;20643;-70
2023/07/31 07:15:20;;;;;;;3.85;2.17;;;;;;;;;;5137385;27;20245;-69
2023/07/31 07:17:48;;;;;;;2.42;2.20;;;;;;;;;;5137042;27;20234;-69
2023/07/31 07:20:15;;;;;;;4.00;2.30;;;;;;;;;;5135432;27;20207;-69
2023/07/31 07:22:43;;;;;;;3.33;2.30;;;;;;;;;;5137628;27;20228;-69
2023/07/31 07:25:11;;;;;;;4.43;2.20;;;;;;;;;;5136976;27;20209;-69
2023/07/31 07:27:38;;;;;;;4.75;2.50;;;;;;;;;;5137284;27;20209;-69
2023/07/31 07:30:08;;;;;;;3.15;2.00;;;;;;;;;;5137272;27;20546;-68
2023/07/31 07:32:36;;;;;;;3.28;2.28;;;;;;;;;;5136286;27;20202;-69
2023/07/31 07:38:07;;;;;;;2.40;1.83;;;;;;;;;;5459678;22;20233;-68
2023/07/31 07:40:34;;;;;;;3.63;2.35;;;;;;;;;;5103961;28;20212;-68
2023/07/31 07:43:01;;;;;;;3.47;2.40;;;;;;;;;;5096309;28;20456;-68
2023/07/31 07:45:30;;;;;;;3.83;2.40;;;;;;;;;;5096076;28;20215;-68
2023/07/31 07:47:58;;;;;;;3.28;2.20;;;;;;;;;;5095416;28;20196;-68
2023/07/31 07:50:26;;;;;;;2.88;2.35;;;;;;;;;;5095554;28;20494;-68
2023/07/31 07:52:53;;;;;;;3.63;2.42;;;;;;;;;;5095994;28;20207;-69
2023/07/31 07:55:20;;;;;;;3.97;2.45;;;;;;;;;;5095877;28;20638;-69
2023/07/31 07:57:50;;;;;;;3.60;2.38;;;;;;;;;;5095422;28;20200;-69
2023/07/31 08:00:18;;;;;;;3.08;2.25;;;;;;;;;;5094856;28;20203;-69
2023/07/31 08:02:47;;;;;;;3.90;2.40;;;;;;;;;;5094512;28;20212;-69
2023/07/31 08:05:14;;;;;;;3.50;2.30;;;;;;;;;;5095198;28;20199;-69
2023/07/31 08:07:42;;;;;;;3.65;2.50;;;;;;;;;;5095611;28;20290;-68
2023/07/31 08:10:09;;;;;;;3.45;2.30;;;;;;;;;;5095091;28;20478;-69
2023/07/31 08:12:37;;;;;;;3.58;2.50;;;;;;;;;;5094506;28;20203;-69
2023/07/31 08:15:04;;;;;;;2.92;2.25;;;;;;;;;;5094636;28;20232;-69
2023/07/31 08:17:32;;;;;;;3.17;2.10;;;;;;;;;;5095203;28;20222;-69
2023/07/31 08:20:00;;;;;;;3.80;2.47;;;;;;;;;;5094429;28;20199;-69
2023/07/31 08:22:28;;;;;;;2.65;2.38;;;;;;;;;;5095164;28;20207;-69
2023/07/31 08:24:55;;;;;;;3.85;2.25;;;;;;;;;;5094420;28;20575;-69
2023/07/31 08:27:23;;;;;;;4.60;2.72;;;;;;;;;;5094783;28;20221;-68
2023/07/31 08:29:50;;;;;;;4.85;2.63;;;;;;;;;;5114636;28;20199;-68
2023/07/31 08:32:18;;;;;;;4.32;2.50;;;;;;;;;;5116689;28;20213;-69
2023/07/31 08:34:45;;;;;;;3.88;2.85;;;;;;;;;;5118710;28;20226;-69
2023/07/31 08:37:14;;;;;;;3.13;2.25;;;;;;;;;;5118237;28;20271;-68
2023/07/31 08:39:41;;;;;;;4.47;2.47;;;;;;;;;;5118588;28;20207;-68
2023/07/31 08:42:10;;;;;;;2.97;2.53;;;;;;;;;;5118660;28;20210;-68
2023/07/31 08:44:38;;;;;;;3.03;2.28;;;;;;;;;;5118914;28;20203;-68
2023/07/31 08:50:09;;;;;;;3.50;2.45;;;;;;;;;;5601048;22;20426;-67
2023/07/31 08:52:38;;;;;;;4.68;2.88;;;;;;;;;;5098220;28;20235;-67
2023/07/31 08:55:06;;;;;;;4.43;2.60;;;;;;;;;;5098947;28;20314;-67
2023/07/31 08:57:33;;;;;;;3.97;2.60;;;;;;;;;;5098888;28;20290;-68
2023/07/31 09:00:01;;;;;;;4.88;2.92;;;;;;;;;;5098341;28;20231;-68
2023/07/31 09:02:32;;;;;;;4.78;2.53;;;;;;;;;;5098729;28;20203;-68
2023/07/31 09:04:59;;;;;;;3.78;2.40;;;;;;;;;;5098840;28;20218;-68
2023/07/31 09:07:27;;;;;;;3.75;2.70;;;;;;;;;;5097915;28;20268;-68
2023/07/31 09:09:56;;;;;;;3.13;2.30;;;;;;;;;;5098473;28;20294;-68
2023/07/31 09:12:23;;;;;;;4.18;2.67;;;;;;;;;;5098690;28;20658;-68
2023/07/31 09:14:51;;;;;;;3.85;2.33;;;;;;;;;;5098071;28;20606;-68
2023/07/31 09:17:30;;;;;;;4.70;2.80;;;;;;;;;;5097974;28;20695;-68
2023/07/31 09:19:57;;;;;;;4.55;2.30;;;;;;;;;;5098258;28;20533;-68
2023/07/31 09:22:33;;;;;;;5.85;2.55;;;;;;;;;;5097802;28;20241;-68
2023/07/31 09:25:16;;;;;;;4.60;2.90;;;;;;;;;;5097472;28;20199;-68
2023/07/31 09:27:47;;;;;;;3.17;2.60;;;;;;;;;;5098296;28;20226;-68
2023/07/31 09:30:15;;;;;;;3.13;2.50;;;;;;;;;;5097846;28;20303;-68
2023/07/31 09:32:42;;;;;;;3.25;2.60;;;;;;;;;;5096846;28;20207;-68
2023/07/31 09:35:15;;;;;;;6.60;2.85;;;;;;;;;;5097423;28;20234;-68
2023/07/31 09:37:42;;;;;;;3.80;2.67;;;;;;;;;;5097261;28;20286;-68
2023/07/31 09:40:26;;;;;;;4.05;2.50;;;;;;;;;;5116579;28;20213;-68
2023/07/31 09:42:53;;;;;;;4.20;2.70;;;;;;;;;;5117515;28;20206;-68
2023/07/31 09:45:21;;;;;;;3.33;2.63;;;;;;;;;;5118379;28;20191;-68
2023/07/31 09:47:48;;;;;;;3.13;2.70;;;;;;;;;;5106366;28;20205;-68
2023/07/31 09:50:16;;;;;;;5.32;2.83;;;;;;;;;;5118064;28;20214;-68
2023/07/31 09:52:44;;;;;;;3.47;2.83;;;;;;;;;;5115516;28;20203;-68
2023/07/31 09:55:13;;;;;;;4.07;2.60;;;;;;;;;;5118184;28;20314;-68
2023/07/31 09:57:42;;;;;;;3.85;2.80;;;;;;;;;;5117809;28;20209;-68
2023/07/31 10:00:10;;;;;;;4.00;2.70;;;;;;;;;;5097319;28;20225;-68
2023/07/31 10:02:38;;;;;;;5.22;2.63;;;;;;;;;;5096495;28;20222;-68
2023/07/31 10:05:06;;;;;;;4.35;3.08;;;;;;;;;;5097018;28;20203;-68
2023/07/31 10:07:35;;;;;;;3.78;2.42;;;;;;;;;;5097110;28;20282;-68
2023/07/31 10:10:03;;;;;;;4.55;2.90;;;;;;;;;;5097141;28;20553;-68
2023/07/31 10:12:34;;;;;;;3.22;2.92;;;;;;;;;;5096721;28;20235;-68
2023/07/31 10:15:02;;;;;;;4.80;2.65;;;;;;;;;;5096547;28;20231;-68
2023/07/31 10:17:31;;;;;;;3.95;2.85;;;;;;;;;;5095447;28;20231;-68
2023/07/31 10:19:59;;;;;;;3.90;2.78;;;;;;;;;;5096409;28;20207;-68
2023/07/31 10:22:27;;;;;;;3.97;2.58;;;;;;;;;;5096227;28;20199;-68
2023/07/31 10:24:56;;;;;;;3.45;2.28;;;;;;;;;;5096246;28;20294;-68
2023/07/31 10:27:23;;;;;;;3.42;2.55;;;;;;;;;;5096283;28;20735;-68
2023/07/31 10:29:53;;;;;;;2.97;2.65;;;;;;;;;;5095842;28;20213;-68
2023/07/31 10:32:21;;;;;;;4.18;2.45;;;;;;;;;;5096074;28;20298;-68
2023/07/31 10:34:49;;;;;;;3.97;2.83;;;;;;;;;;5096649;28;20235;-68
2023/07/31 10:37:23;;;;;;;4.07;2.45;;;;;;;;;;5095462;28;20483;-68
2023/07/31 10:39:58;;;;;;;4.80;2.53;;;;;;;;;;5095589;28;20772;-68
2023/07/31 10:42:30;;;;;;;3.75;2.67;;;;;;;;;;5095678;28;20294;-68
2023/07/31 10:45:00;;;;;;;3.42;2.80;;;;;;;;;;5095912;28;20238;-68
2023/07/31 10:47:27;;;;;;;4.88;3.00;;;;;;;;;;5095435;28;20215;-68
2023/07/31 10:50:12;;;;;;;3.75;2.38;;;;;;;;;;5096075;28;20307;-68
2023/07/31 10:52:40;;;;;;;3.75;2.55;;;;;;;;;;5088593;28;20345;-68
2023/07/31 10:55:25;;;;;;;4.22;2.72;;;;;;;;;;5094029;28;20289;-68
2023/07/31 10:57:52;;;;;;;3.72;2.60;;;;;;;;;;5082371;28;20227;-68
2023/07/31 11:00:22;;;;;;;3.22;2.67;;;;;;;;;;5096366;28;20621;-68
2023/07/31 11:03:00;;;;;;;4.45;3.00;;;;;;;;;;5095095;28;20309;-68
2023/07/31 11:05:47;;;;;;;3.95;2.88;;;;;;;;;;5095563;28;20203;-68
2023/07/31 11:08:15;;;;;;;4.40;2.90;;;;;;;;;;5096303;28;20234;-68
2023/07/31 11:10:42;;;;;;;4.22;2.90;;;;;;;;;;5095426;28;20218;-68
2023/07/31 11:13:10;;;;;;;3.72;2.63;;;;;;;;;;5094522;28;20307;-68
2023/07/31 11:15:39;;;;;;;3.45;2.55;;;;;;;;;;5095767;28;20229;-68
2023/07/31 11:18:07;;;;;;;3.50;2.67;;;;;;;;;;5095339;28;20268;-68
2023/07/31 11:20:36;;;;;;;3.60;2.67;;;;;;;;;;5095569;28;20286;-68
2023/07/31 11:23:03;;;;;;;5.63;2.58;;;;;;;;;;5095031;28;20549;-68
2023/07/31 11:25:32;;;;;;;4.45;2.70;;;;;;;;;;5095357;28;20200;-68
2023/07/31 11:27:59;;;;;;;3.30;2.25;;;;;;;;;;5095669;28;20253;-68
2023/07/31 11:30:27;;;;;;;3.50;2.63;;;;;;;;;;5095319;28;20218;-68
2023/07/31 11:32:56;;;;;;;3.15;2.55;;;;;;;;;;5095212;28;20294;-68
2023/07/31 11:35:24;;;;;;;3.28;2.70;;;;;;;;;;5095141;28;20219;-69
2023/07/31 11:37:51;;;;;;;4.00;2.83;;;;;;;;;;5095782;28;20518;-69
2023/07/31 11:40:19;;;;;;;4.80;3.30;;;;;;;;;;5096116;28;20290;-69
2023/07/31 11:42:47;;;;;;;4.85;2.80;;;;;;;;;;5095824;28;20215;-68
2023/07/31 11:45:15;;;;;;;5.88;2.80;;;;;;;;;;5096001;28;20585;-68
2023/07/31 11:47:42;;;;;;;4.55;3.35;;;;;;;;;;5095221;28;20602;-68
2023/07/31 11:50:12;;;;;;;6.65;5.18;;;;;;;;;;5095560;28;20285;-68
2023/07/31 11:52:41;;;;;;;3.85;3.25;;;;;;;;;;5115441;28;20574;-68
2023/07/31 11:55:10;;;;;;;4.28;3.63;;;;;;;;;;5115219;28;20617;-68
2023/07/31 11:57:39;;;;;;;4.85;3.92;;;;;;;;;;5116000;28;20742;-68
2023/07/31 12:00:09;;;;;;;6.35;3.92;;;;;;;;;;5114658;28;20195;-68
2023/07/31 12:02:36;;;;;;;4.68;3.50;;;;;;;;;;5115555;28;20195;-68
2023/07/31 12:05:04;;;;;;;3.95;2.78;;;;;;;;;;5114347;28;20210;-68
2023/07/31 12:07:46;;;;;;;4.35;2.78;;;;;;;;;;5118724;28;20297;-68
2023/07/31 12:10:13;;;;;;;4.13;2.85;;;;;;;;;;5119596;28;20271;-68
2023/07/31 12:12:41;;;;;;;4.60;3.22;;;;;;;;;;5119512;28;20203;-68
2023/07/31 12:15:15;;;;;;;3.85;2.60;;;;;;;;;;5119003;28;20222;-68
2023/07/31 12:17:43;;;;;;;3.25;2.58;;;;;;;;;;5119481;28;20202;-68
2023/07/31 12:20:11;;;;;;;2.95;2.40;;;;;;;;;;5119744;28;20205;-68
2023/07/31 12:22:38;;;;;;;3.92;2.58;;;;;;;;;;5119259;28;20206;-68
2023/07/31 12:25:07;;;;;;;2.97;2.20;;;;;;;;;;5118823;28;20319;-68
2023/07/31 12:27:35;;;;;;;3.67;2.70;;;;;;;;;;5119194;28;20212;-68
2023/07/31 12:30:03;;;;;;;3.92;2.92;;;;;;;;;;5119196;28;20195;-69
2023/07/31 12:32:33;;;;;;;3.30;2.60;;;;;;;;;;5119042;28;20202;-68
2023/07/31 12:35:02;;;;;;;3.85;2.63;;;;;;;;;;5119844;28;20223;-68
2023/07/31 12:37:32;;;;;;;3.90;2.40;;;;;;;;;;5119076;28;20199;-68
2023/07/31 12:40:03;;;;;;;3.35;2.70;;;;;;;;;;5118795;28;20203;-68
2023/07/31 12:42:33;;;;;;;4.03;2.83;;;;;;;;;;5119252;28;20510;-68
2023/07/31 12:45:01;;;;;;;3.33;2.50;;;;;;;;;;5118825;28;20310;-68
2023/07/31 12:47:28;;;;;;;2.65;2.20;;;;;;;;;;5118690;28;20207;-68
2023/07/31 12:49:56;;;;;;;2.60;2.30;;;;;;;;;;5118329;28;20238;-68
2023/07/31 12:52:23;;;;;;;3.55;2.40;;;;;;;;;;5117997;28;20273;-68
2023/07/31 12:54:50;;;;;;;3.30;2.50;;;;;;;;;;5118450;28;20217;-68
2023/07/31 12:57:18;;;;;;;3.85;2.58;;;;;;;;;;5118998;28;20242;-68
2023/07/31 12:59:47;;;;;;;2.72;2.50;;;;;;;;;;5117245;28;20778;-68
2023/07/31 13:02:14;;;;;;;3.28;2.53;;;;;;;;;;5117161;28;20202;-68
2023/07/31 13:04:41;;;;;;;4.57;2.88;;;;;;;;;;5117463;28;20198;-68
2023/07/31 13:07:09;;;;;;;3.60;2.42;;;;;;;;;;5117798;28;20234;-69
2023/07/31 13:09:36;;;;;;;3.53;2.55;;;;;;;;;;5118087;28;20203;-68
2023/07/31 13:12:04;;;;;;;3.30;2.60;;;;;;;;;;5117684;28;20226;-69
2023/07/31 13:14:31;;;;;;;4.15;2.38;;;;;;;;;;5117491;28;20249;-68
2023/07/31 13:17:00;;;;;;;3.17;2.45;;;;;;;;;;5117890;28;20653;-68
2023/07/31 13:19:28;;;;;;;2.80;2.55;;;;;;;;;;5117559;28;20203;-68
2023/07/31 13:21:55;;;;;;;4.20;2.67;;;;;;;;;;5118477;28;20203;-68
2023/07/31 13:24:23;;;;;;;3.42;2.42;;;;;;;;;;5118318;28;20242;-68
2023/07/31 13:26:50;;;;;;;3.85;2.60;;;;;;;;;;5117858;28;20199;-68
2023/07/31 13:29:17;;;;;;;3.78;2.95;;;;;;;;;;5118424;28;20203;-68
2023/07/31 13:31:45;;;;;;;4.43;2.67;;;;;;;;;;5116802;28;20199;-68
2023/07/31 13:34:14;;;;;;;3.30;2.63;;;;;;;;;;5117402;28;20199;-68
2023/07/31 13:36:42;;;;;;;3.80;2.70;;;;;;;;;;5118140;28;20329;-68
2023/07/31 13:39:09;;;;;;;3.22;2.60;;;;;;;;;;5116474;28;20202;-68
2023/07/31 13:41:36;;;;;;;5.22;2.95;;;;;;;;;;5117497;28;20289;-68
2023/07/31 13:44:04;;;;;;;3.75;2.72;;;;;;;;;;5117400;28;20209;-69
2023/07/31 13:46:32;;;;;;;4.10;3.00;;;;;;;;;;5118335;28;20202;-68
2023/07/31 13:49:01;;;;;;;4.05;3.00;;;;;;;;;;5117148;28;20857;-68
2023/07/31 13:51:30;;;;;;;3.45;2.60;;;;;;;;;;5116465;28;20246;-68
2023/07/31 13:53:57;;;;;;;3.95;2.72;;;;;;;;;;5117080;28;20659;-68
2023/07/31 13:56:25;;;;;;;3.35;2.63;;;;;;;;;;5117899;28;20234;-68
2023/07/31 13:58:52;;;;;;;6.60;2.83;;;;;;;;;;5118002;28;20620;-69
2023/07/31 14:01:19;;;;;;;3.95;2.47;;;;;;;;;;5118035;28;20207;-68
2023/07/31 14:03:47;;;;;;;4.00;2.70;;;;;;;;;;5117319;28;20213;-69
2023/07/31 14:06:14;;;;;;;3.47;2.40;;;;;;;;;;5117417;28;20230;-68
2023/07/31 14:08:43;;;;;;;3.92;2.72;;;;;;;;;;5116978;28;20203;-68
2023/07/31 14:11:10;;;;;;;3.17;2.55;;;;;;;;;;5116837;28;20337;-68
2023/07/31 14:13:38;;;;;;;3.97;3.03;;;;;;;;;;5116462;28;20210;-68
2023/07/31 14:16:06;;;;;;;3.90;2.83;;;;;;;;;;5116375;28;20232;-68
2023/07/31 14:18:33;;;;;;;4.15;2.70;;;;;;;;;;5116272;28;20213;-68
2023/07/31 14:21:01;;;;;;;3.88;2.60;;;;;;;;;;5117492;28;20199;-68
2023/07/31 14:23:28;;;;;;;3.30;2.60;;;;;;;;;;5117112;28;20297;-68
2023/07/31 14:25:57;;;;;;;4.63;2.97;;;;;;;;;;5117142;28;20345;-68
2023/07/31 14:28:24;;;;;;;4.57;2.60;;;;;;;;;;5117021;28;20297;-68
2023/07/31 14:30:52;;;;;;;4.95;2.92;;;;;;;;;;5115459;28;20249;-68
2023/07/31 14:33:19;;;;;;;3.22;2.70;;;;;;;;;;5117452;28;20238;-68
2023/07/31 14:35:46;;;;;;;4.82;3.05;;;;;;;;;;5116178;28;20266;-69
2023/07/31 14:38:14;;;;;;;3.47;2.80;;;;;;;;;;5115938;28;20302;-68
2023/07/31 14:40:41;;;;;;;4.90;2.97;;;;;;;;;;5116335;28;20199;-68
2023/07/31 14:43:10;;;;;;;3.90;2.67;;;;;;;;;;5117023;28;20293;-68
2023/07/31 14:45:38;;;;;;;3.15;2.60;;;;;;;;;;5116546;28;20301;-69
2023/07/31 14:48:06;;;;;;;3.65;2.83;;;;;;;;;;5116039;28;20630;-68
2023/07/31 14:50:33;;;;;;;3.72;2.90;;;;;;;;;;5116691;28;20253;-69
2023/07/31 14:53:00;;;;;;;4.25;2.97;;;;;;;;;;5116762;28;20203;-68
2023/07/31 14:55:28;;;;;;;3.80;2.78;;;;;;;;;;5116538;28;20290;-68